Ufimets — UFNC — position and weather

sailwx.info

Track history (hours):
 
Tides and Currents Weather Stations Pressure Air Temp Water Temp Dewpoint Dewpoint Depression Visibility Wind Speed Wind Dir Waves Ship Positions

Ufimets

Last reported at 2016-Aug-19 03:09 UTC. Time now 2016-Aug-25 14:55 UTC.
Position N 59°48' E 030°38'.

Length 82 m; draft 1.8 m.

Type: Ship. MMSI: 27343260.

Date/timePositionNaut miles runAvg speedWind from/ knotsBaromVisibWave heightAir tempDewpointWater temp
2016-Aug-19 03:09N 59°48' E 030°38'1 1.6
2016-Aug-19 02:28N 59°49' E 030°36'0 0.0
2016-Aug-19 01:25N 59°49' E 030°36'4 4.3
2016-Aug-19 00:28N 59°51' E 030°30'5 5.1
2016-Aug-18 23:33N 59°55' E 030°24'4 3.6
2016-Aug-18 22:33N 59°56' E 030°18'0 0.3
2016-Aug-18 21:33N 59°56' E 030°17'0 0.0
2016-Aug-18 20:33N 59°56' E 030°17'0 0.0
2016-Aug-18 19:33N 59°56' E 030°17'0 0.0
2016-Aug-18 18:33N 59°56' E 030°17'0 0.0
2016-Aug-18 17:33N 59°56' E 030°17'0 0.0
2016-Aug-18 16:33N 59°56' E 030°17'0 0.0
2016-Aug-18 15:33N 59°56' E 030°17'3 2.7
2016-Aug-18 14:33N 59°55' E 030°12'7 7.2
2016-Aug-18 13:32N 59°56' E 029°57'  
2016-Aug-16 03:13N 59°59' E 029°45'4 6.2
2016-Aug-16 02:33N 59°57' E 029°52'7 7.0
2016-Aug-16 01:33N 59°54' E 030°05'6 5.7
2016-Aug-16 00:33N 59°55' E 030°16'4 3.8
2016-Aug-15 23:33N 59°55' E 030°24'0 0.0
2016-Aug-15 22:33N 59°55' E 030°24'0 0.0
2016-Aug-15 20:25N 59°55' E 030°24'0 0.0
2016-Aug-15 19:32N 59°55' E 030°24'0 0.0
2016-Aug-15 18:32N 59°55' E 030°24'0 0.0
2016-Aug-15 17:28N 59°55' E 030°24'0 0.0
2016-Aug-15 16:32N 59°55' E 030°24'0 0.0
2016-Aug-15 15:33N 59°55' E 030°24'0 0.0
2016-Aug-15 14:32N 59°55' E 030°24'0 0.0
2016-Aug-15 13:31N 59°55' E 030°24'0 0.0
2016-Aug-15 11:16N 59°55' E 030°24'0 0.0
2016-Aug-15 10:31N 59°55' E 030°24'0 0.0
2016-Aug-15 09:29N 59°55' E 030°24'0 0.0
2016-Aug-15 08:33N 59°55' E 030°24'0 0.0
2016-Aug-15 07:29N 59°55' E 030°24'0 0.0
2016-Aug-15 06:26N 59°55' E 030°24'9 1.6
2016-Aug-15 00:33N 59°48' E 030°36'  
2016-Aug-09 10:33N 59°56' E 030°17'0 0.0
2016-Aug-09 09:33N 59°56' E 030°17'0 0.0
2016-Aug-09 08:32N 59°56' E 030°17'0 0.0
2016-Aug-09 07:33N 59°56' E 030°17'2 1.2
2016-Aug-09 05:33N 59°55' E 030°12'7 7.5
2016-Aug-09 04:34N 59°56' E 029°57'  
Track history (hours):
 
Tides and Currents Weather Stations Pressure Air Temp Water Temp Dewpoint Dewpoint Depression Visibility Wind Speed Wind Dir Waves Ship Positions

Ufimets

Last reported at 2016-Aug-19 03:09 UTC. Time now 2016-Aug-25 14:55 UTC.
Position N 59°48' E 030°38'.

Length 82 m; draft 1.8 m.

Type: Ship. MMSI: 27343260.

Date/timePositionNaut miles runAvg speedWind from/ knotsBaromVisibWave heightAir tempDewpointWater temp
2016-Aug-19 03:09N 59°48' E 030°38'1 1.6
2016-Aug-19 02:28N 59°49' E 030°36'0 0.0
2016-Aug-19 01:25N 59°49' E 030°36'4 4.3
2016-Aug-19 00:28N 59°51' E 030°30'5 5.1
2016-Aug-18 23:33N 59°55' E 030°24'4 3.6
2016-Aug-18 22:33N 59°56' E 030°18'0 0.3
2016-Aug-18 21:33N 59°56' E 030°17'0 0.0
2016-Aug-18 20:33N 59°56' E 030°17'0 0.0
2016-Aug-18 19:33N 59°56' E 030°17'0 0.0
2016-Aug-18 18:33N 59°56' E 030°17'0 0.0
2016-Aug-18 17:33N 59°56' E 030°17'0 0.0
2016-Aug-18 16:33N 59°56' E 030°17'0 0.0
2016-Aug-18 15:33N 59°56' E 030°17'3 2.7
2016-Aug-18 14:33N 59°55' E 030°12'7 7.2
2016-Aug-18 13:32N 59°56' E 029°57'  
2016-Aug-16 03:13N 59°59' E 029°45'4 6.2
2016-Aug-16 02:33N 59°57' E 029°52'7 7.0
2016-Aug-16 01:33N 59°54' E 030°05'6 5.7
2016-Aug-16 00:33N 59°55' E 030°16'4 3.8
2016-Aug-15 23:33N 59°55' E 030°24'0 0.0
2016-Aug-15 22:33N 59°55' E 030°24'0 0.0
2016-Aug-15 20:25N 59°55' E 030°24'0 0.0
2016-Aug-15 19:32N 59°55' E 030°24'0 0.0
2016-Aug-15 18:32N 59°55' E 030°24'0 0.0
2016-Aug-15 17:28N 59°55' E 030°24'0 0.0
2016-Aug-15 16:32N 59°55' E 030°24'0 0.0
2016-Aug-15 15:33N 59°55' E 030°24'0 0.0
2016-Aug-15 14:32N 59°55' E 030°24'0 0.0
2016-Aug-15 13:31N 59°55' E 030°24'0 0.0
2016-Aug-15 11:16N 59°55' E 030°24'0 0.0
2016-Aug-15 10:31N 59°55' E 030°24'0 0.0
2016-Aug-15 09:29N 59°55' E 030°24'0 0.0
2016-Aug-15 08:33N 59°55' E 030°24'0 0.0
2016-Aug-15 07:29N 59°55' E 030°24'0 0.0
2016-Aug-15 06:26N 59°55' E 030°24'9 1.6
2016-Aug-15 00:33N 59°48' E 030°36'  
2016-Aug-09 10:33N 59°56' E 030°17'0 0.0
2016-Aug-09 09:33N 59°56' E 030°17'0 0.0
2016-Aug-09 08:32N 59°56' E 030°17'0 0.0
2016-Aug-09 07:33N 59°56' E 030°17'2 1.2
2016-Aug-09 05:33N 59°55' E 030°12'7 7.5
2016-Aug-09 04:34N 59°56' E 029°57'  

Dump ship's entire track history